createdAt,value
2018-09-28T11:48:50.255Z,50
2018-09-28T11:50:50.476Z,32
2018-09-28T11:52:49.895Z,29
2018-09-28T11:54:50.235Z,28
2018-09-28T11:56:50.663Z,20
2018-09-28T11:58:50.031Z,33
2018-09-28T12:00:50.446Z,25
2018-09-28T12:02:49.731Z,26
2018-09-28T12:04:50.318Z,29
2018-09-28T12:06:50.518Z,29
2018-09-28T12:08:50.513Z,34
2018-09-28T12:10:50.120Z,26
2018-09-28T12:12:50.584Z,32
2018-09-28T12:14:49.947Z,27
2018-09-28T12:16:50.484Z,18
2018-09-28T12:18:51.018Z,22
2018-09-28T12:20:50.039Z,22
2018-09-28T12:22:50.344Z,28
2018-09-28T12:24:51.195Z,17
2018-09-28T12:26:50.118Z,21
2018-09-28T12:28:50.505Z,25
2018-09-28T12:30:50.310Z,22
2018-09-28T12:32:50.202Z,12
2018-09-28T12:34:49.943Z,0
2018-09-28T12:36:51.037Z,0
2018-09-28T12:38:50.690Z,0
2018-09-28T12:40:50.097Z,0
2018-09-28T12:42:51.026Z,0
2018-09-28T12:44:50.371Z,0
2018-09-28T12:46:50.110Z,0
2018-09-28T12:48:50.994Z,0
2018-09-28T12:50:50.392Z,0
2018-09-28T12:52:49.919Z,0
2018-09-28T12:54:50.692Z,0
2018-09-28T12:56:51.133Z,0
2018-09-28T12:58:49.925Z,0
2018-09-28T13:00:50.991Z,0
2018-09-28T13:02:50.469Z,0
2018-09-28T13:04:50.467Z,0
2018-09-28T13:06:50.466Z,0
2018-09-28T13:08:50.591Z,0
2018-09-28T13:10:50.407Z,0
2018-09-28T13:12:50.656Z,0
2018-09-28T13:14:51.004Z,0
2018-09-28T13:16:50.092Z,0
2018-09-28T13:18:50.964Z,0
2018-09-28T13:20:51.092Z,0
2018-09-28T13:22:49.900Z,0
2018-09-28T13:24:50.735Z,0
2018-09-28T13:26:51.053Z,0
2018-09-28T13:28:50.671Z,0
2018-09-28T13:30:50.402Z,0
2018-09-28T13:32:50.455Z,0
2018-09-28T13:34:49.907Z,0
2018-09-28T13:36:51.067Z,0
2018-09-28T13:38:51.327Z,0
2018-09-28T13:40:50.329Z,0
2018-09-28T13:42:50.285Z,0
2018-09-28T13:44:50.994Z,0
2018-09-28T13:46:50.658Z,0
2018-09-28T13:48:51.044Z,0
2018-09-28T13:50:50.264Z,0
2018-09-28T13:52:50.467Z,0
2018-09-28T13:54:50.415Z,0
2018-09-28T13:56:50.905Z,0
2018-09-28T13:58:50.317Z,0
2018-09-28T14:00:50.878Z,0
2018-09-28T14:02:50.175Z,0
2018-09-28T14:04:50.336Z,0
2018-09-28T14:06:50.931Z,0
2018-09-28T14:08:50.547Z,0
2018-09-28T14:10:51.009Z,0
2018-09-28T14:12:50.699Z,0
2018-09-28T14:14:50.831Z,0
2018-09-28T14:16:51.190Z,0
2018-09-28T14:18:51.244Z,0
2018-09-28T14:20:50.663Z,0
2018-09-28T14:22:50.752Z,0
2018-09-28T14:24:51.132Z,0
2018-09-28T14:26:50.468Z,0
2018-09-28T14:28:50.760Z,0
2018-09-28T14:30:50.900Z,0
2018-09-28T14:32:50.166Z,0
2018-09-28T14:34:50.981Z,0
2018-09-28T14:36:50.554Z,0
2018-09-28T14:38:50.327Z,0
2018-09-28T14:40:51.033Z,25
2018-09-28T14:42:50.821Z,27
2018-09-28T14:44:50.588Z,24
2018-09-28T14:46:51.092Z,22
2018-09-28T14:48:51.253Z,19
2018-09-28T14:50:51.016Z,25
2018-09-28T14:52:50.511Z,19
2018-09-28T14:54:50.604Z,22
2018-09-28T14:56:51.078Z,27
2018-09-28T14:58:50.227Z,21
2018-09-28T15:00:50.836Z,24
2018-09-28T15:02:50.716Z,24
2018-09-28T15:04:50.431Z,22
2018-09-28T15:06:50.628Z,24
2018-09-28T15:08:50.553Z,33
2018-09-28T15:10:50.107Z,33
2018-09-28T15:12:50.398Z,32
2018-09-28T15:14:50.346Z,23
2018-09-28T15:16:50.306Z,24
2018-09-28T15:18:51.169Z,24
